createdAt,value
2019-05-12T00:00:18.387Z,0.00
2019-05-12T00:01:18.752Z,0.00
2019-05-12T00:02:17.869Z,0.00
2019-05-12T00:03:18.889Z,0.00
2019-05-12T00:04:18.952Z,0.00
2019-05-12T00:05:18.537Z,0.00
2019-05-12T00:06:17.758Z,0.00
2019-05-12T00:07:18.058Z,0.00
2019-05-12T00:08:18.900Z,0.00
2019-05-12T00:09:18.792Z,0.00
2019-05-12T00:10:17.833Z,0.00
2019-05-12T00:11:17.937Z,0.00
2019-05-12T00:12:18.420Z,0.00
2019-05-12T00:13:18.998Z,0.00
2019-05-12T00:14:17.795Z,0.00
2019-05-12T00:15:19.159Z,0.00
2019-05-12T00:16:17.735Z,0.00
2019-05-12T00:17:18.787Z,0.00
2019-05-12T00:18:18.057Z,0.00
2019-05-12T00:19:17.925Z,0.00
2019-05-12T00:20:18.146Z,0.00
2019-05-12T00:21:17.725Z,0.00
2019-05-12T00:22:18.119Z,0.00
2019-05-12T00:23:26.751Z,0.00
2019-05-12T00:24:18.635Z,0.00
2019-05-12T00:25:18.121Z,0.00
2019-05-12T00:26:18.614Z,0.00
2019-05-12T00:27:17.858Z,0.00
2019-05-12T00:28:17.952Z,0.00
2019-05-12T00:29:18.508Z,0.00
2019-05-12T00:30:18.522Z,0.00
2019-05-12T00:31:18.845Z,0.00
2019-05-12T00:32:17.953Z,0.00
2019-05-12T00:33:17.974Z,0.00
2019-05-12T00:34:18.480Z,0.00
2019-05-12T00:35:18.245Z,0.00
2019-05-12T00:36:18.550Z,0.00
2019-05-12T00:37:18.556Z,0.00
2019-05-12T00:38:17.657Z,0.00
2019-05-12T00:39:18.892Z,0.00
2019-05-12T00:40:19.034Z,0.00
2019-05-12T00:41:18.140Z,0.00
2019-05-12T00:42:18.257Z,0.00
2019-05-12T00:43:18.745Z,0.00
2019-05-12T00:44:18.373Z,0.00
2019-05-12T00:45:18.119Z,0.00
2019-05-12T00:46:18.333Z,0.00
2019-05-12T00:47:18.794Z,0.00
2019-05-12T00:48:17.803Z,0.00
2019-05-12T00:49:18.639Z,0.00
2019-05-12T00:50:18.422Z,0.00
2019-05-12T00:51:18.104Z,0.00
2019-05-12T00:52:18.670Z,0.00
2019-05-12T00:53:18.682Z,0.00
2019-05-12T00:54:17.861Z,0.00
2019-05-12T00:55:18.455Z,0.00
2019-05-12T00:56:17.727Z,0.00
2019-05-12T00:57:18.195Z,0.00
2019-05-12T00:58:19.375Z,0.00
2019-05-12T00:59:18.835Z,0.00
2019-05-12T01:00:17.867Z,0.00
2019-05-12T01:01:18.401Z,0.00
2019-05-12T01:02:18.335Z,0.00
2019-05-12T01:03:18.839Z,0.00
2019-05-12T01:04:17.549Z,0.00
2019-05-12T01:05:17.727Z,0.00
2019-05-12T01:06:17.836Z,0.00
2019-05-12T01:07:18.332Z,0.00
2019-05-12T01:08:18.526Z,0.00
2019-05-12T01:09:17.659Z,0.00
2019-05-12T01:10:17.948Z,0.00
2019-05-12T01:11:17.808Z,0.00
2019-05-12T01:12:18.093Z,0.00
2019-05-12T01:13:18.612Z,0.00
2019-05-12T01:14:18.499Z,0.00
2019-05-12T01:15:17.815Z,0.00
2019-05-12T01:16:18.354Z,0.00
2019-05-12T01:17:17.716Z,0.00
2019-05-12T01:18:18.140Z,0.00
2019-05-12T01:19:18.521Z,0.00
2019-05-12T01:20:17.881Z,0.00
2019-05-12T01:21:18.459Z,0.00
2019-05-12T01:22:18.578Z,0.00
2019-05-12T01:23:18.679Z,0.00
2019-05-12T01:24:18.533Z,0.00
2019-05-12T01:25:17.636Z,0.00
2019-05-12T01:26:17.934Z,0.00
2019-05-12T01:27:18.108Z,0.00
2019-05-12T01:28:18.259Z,0.00
2019-05-12T01:29:17.686Z,0.00
2019-05-12T01:30:18.046Z,0.00
2019-05-12T01:31:18.046Z,0.00
2019-05-12T01:32:18.244Z,0.00
2019-05-12T01:33:18.146Z,0.00
2019-05-12T01:34:18.152Z,0.00
2019-05-12T01:35:18.397Z,0.00
2019-05-12T01:36:18.112Z,0.00
2019-05-12T01:37:17.955Z,0.00
2019-05-12T01:38:18.218Z,0.00
2019-05-12T01:39:18.615Z,0.00
2019-05-12T01:40:18.870Z,0.00
2019-05-12T01:41:18.005Z,0.00
2019-05-12T01:42:18.100Z,0.00
2019-05-12T01:43:18.596Z,0.00
2019-05-12T01:44:18.231Z,0.00
2019-05-12T01:45:18.059Z,0.00
2019-05-12T01:46:18.141Z,0.00
2019-05-12T01:47:18.581Z,0.00
2019-05-12T01:48:17.981Z,0.00
2019-05-12T01:49:18.486Z,0.00
2019-05-12T01:50:17.794Z,0.00
2019-05-12T01:51:17.777Z,0.00
2019-05-12T01:52:17.840Z,0.00
2019-05-12T01:53:18.044Z,0.00
2019-05-12T01:54:18.705Z,0.00
2019-05-12T01:55:18.419Z,0.00
2019-05-12T01:56:18.114Z,0.00
2019-05-12T01:57:16.779Z,0.00
2019-05-12T01:58:19.056Z,0.00
2019-05-12T01:59:18.371Z,0.00
2019-05-12T02:00:18.170Z,0.00
2019-05-12T02:01:15.958Z,0.00
2019-05-12T02:02:17.857Z,0.00
2019-05-12T02:03:17.808Z,0.00
2019-05-12T02:04:17.997Z,0.00
2019-05-12T02:05:18.187Z,0.00
2019-05-12T02:06:15.900Z,0.00
2019-05-12T02:07:15.921Z,0.00
2019-05-12T02:08:15.893Z,0.00
2019-05-12T02:09:15.897Z,0.00
2019-05-12T02:10:17.911Z,0.00
2019-05-12T02:11:18.102Z,0.00
2019-05-12T02:12:18.155Z,0.00
2019-05-12T02:13:18.166Z,0.00
2019-05-12T02:14:18.128Z,0.00
2019-05-12T02:15:18.211Z,0.00
2019-05-12T02:16:15.792Z,0.00
2019-05-12T02:17:17.850Z,0.00
2019-05-12T02:18:17.725Z,0.00
2019-05-12T02:19:17.823Z,0.00
2019-05-12T02:20:17.919Z,0.00
2019-05-12T02:21:15.733Z,0.00
2019-05-12T02:22:15.743Z,0.00
2019-05-12T02:23:17.772Z,0.00
2019-05-12T02:24:24.293Z,0.00
2019-05-12T02:25:18.487Z,0.00
2019-05-12T02:26:15.677Z,0.00
2019-05-12T02:27:17.816Z,0.00
2019-05-12T02:28:17.955Z,0.00
2019-05-12T02:29:15.641Z,0.00
2019-05-12T02:30:15.657Z,0.00
2019-05-12T02:31:15.642Z,0.00
2019-05-12T02:32:15.614Z,0.00
2019-05-12T02:33:16.143Z,0.00
2019-05-12T02:34:16.035Z,0.00
2019-05-12T02:35:16.279Z,0.00
2019-05-12T02:36:15.562Z,0.00
2019-05-12T02:37:15.552Z,0.00
2019-05-12T02:38:15.539Z,0.00
2019-05-12T02:39:15.528Z,0.00
2019-05-12T02:40:15.560Z,0.00
2019-05-12T02:41:15.821Z,0.00
2019-05-12T02:42:15.784Z,0.00
2019-05-12T02:43:15.714Z,0.00
2019-05-12T02:44:15.476Z,0.00
2019-05-12T02:45:15.721Z,0.00
2019-05-12T02:46:15.891Z,0.00
2019-05-12T02:47:16.128Z,0.00
2019-05-12T02:48:15.430Z,0.00
2019-05-12T02:49:15.902Z,0.00
2019-05-12T02:50:15.429Z,0.00
2019-05-12T02:51:15.792Z,0.00
2019-05-12T02:52:15.549Z,0.00
2019-05-12T02:53:15.394Z,0.00
2019-05-12T02:54:15.362Z,0.00
2019-05-12T02:55:15.349Z,0.00
2019-05-12T02:56:15.393Z,0.00
2019-05-12T02:57:15.326Z,0.00
2019-05-12T02:58:15.507Z,0.00
2019-05-12T02:59:16.261Z,0.00
2019-05-12T03:00:16.205Z,0.00
2019-05-12T03:01:15.450Z,0.00
2019-05-12T03:02:15.269Z,0.00
2019-05-12T03:03:15.257Z,4.00
2019-05-12T03:04:15.247Z,4.00
2019-05-12T03:05:15.259Z,0.00
2019-05-12T03:06:15.329Z,0.00
2019-05-12T03:07:15.601Z,4.00
2019-05-12T03:08:15.618Z,4.00
2019-05-12T03:09:15.352Z,4.00
2019-05-12T03:10:15.187Z,4.00
2019-05-12T03:11:15.191Z,4.00
2019-05-12T03:12:15.156Z,4.00
2019-05-12T03:13:15.143Z,4.00
2019-05-12T03:14:15.899Z,8.00
2019-05-12T03:15:15.425Z,8.00
2019-05-12T03:16:15.289Z,12.00
2019-05-12T03:17:15.412Z,12.00
2019-05-12T03:18:15.092Z,12.00
2019-05-12T03:19:15.281Z,16.00
2019-05-12T03:20:15.651Z,20.00
2019-05-12T03:21:15.414Z,20.00
2019-05-12T03:22:15.043Z,20.00
2019-05-12T03:23:18.983Z,24.00
2019-05-12T03:24:17.660Z,32.00
2019-05-12T03:25:20.741Z,32.00
2019-05-12T03:26:15.997Z,36.00
2019-05-12T03:27:17.715Z,36.00
2019-05-12T03:28:16.094Z,40.00
2019-05-12T03:29:15.119Z,40.00
2019-05-12T03:30:19.472Z,40.00
2019-05-12T03:31:22.113Z,40.00
2019-05-12T03:32:17.818Z,40.00
2019-05-12T03:33:19.708Z,36.00
2019-05-12T03:34:19.357Z,40.00
2019-05-12T03:35:17.490Z,48.00
2019-05-12T03:36:17.995Z,48.00
2019-05-12T03:37:17.944Z,52.00
2019-05-12T03:38:15.167Z,60.00
2019-05-12T03:39:15.205Z,68.00
2019-05-12T03:40:14.842Z,68.00
2019-05-12T03:41:15.064Z,72.00
2019-05-12T03:42:14.821Z,76.00
2019-05-12T03:43:15.053Z,84.00
2019-05-12T03:44:15.322Z,92.00
2019-05-12T03:45:15.156Z,88.00
2019-05-12T03:46:15.402Z,88.00
2019-05-12T03:47:14.761Z,88.00
2019-05-12T03:48:15.222Z,88.00
2019-05-12T03:49:15.525Z,92.00
2019-05-12T03:50:15.062Z,100.00
2019-05-12T03:51:15.630Z,112.00
2019-05-12T03:52:15.384Z,108.00
2019-05-12T03:53:15.575Z,116.00
2019-05-12T03:54:15.399Z,124.00
2019-05-12T03:55:30.300Z,132.00
2019-05-12T03:56:15.658Z,136.00
2019-05-12T03:57:15.202Z,140.00
2019-05-12T03:58:15.461Z,144.00
2019-05-12T03:59:15.308Z,152.00
2019-05-12T04:00:15.947Z,156.00
2019-05-12T04:01:15.248Z,140.00
2019-05-12T04:02:15.206Z,156.00
2019-05-12T04:03:15.490Z,172.00
2019-05-12T04:04:15.298Z,188.00
2019-05-12T04:05:15.783Z,188.00
2019-05-12T04:06:15.357Z,220.00
2019-05-12T04:07:15.416Z,204.00
2019-05-12T04:08:15.784Z,248.00
2019-05-12T04:09:15.431Z,256.00
2019-05-12T04:10:15.537Z,292.00
2019-05-12T04:11:14.813Z,296.00
2019-05-12T04:12:15.016Z,296.00
2019-05-12T04:13:15.279Z,284.00
2019-05-12T04:14:15.012Z,340.00
2019-05-12T04:15:15.419Z,380.00
2019-05-12T04:16:16.473Z,408.00
2019-05-12T04:17:15.059Z,392.00
2019-05-12T04:18:15.848Z,368.00
2019-05-12T04:19:14.927Z,376.00
2019-05-12T04:20:15.446Z,328.00
2019-05-12T04:21:15.529Z,360.00
2019-05-12T04:22:15.421Z,372.00
2019-05-12T04:23:15.424Z,424.00
2019-05-12T04:24:14.556Z,416.00
2019-05-12T04:25:14.869Z,488.00
2019-05-12T04:26:17.036Z,528.00
2019-05-12T04:27:15.236Z,512.00
2019-05-12T04:28:15.179Z,536.00
2019-05-12T04:29:15.412Z,540.00
2019-05-12T04:30:14.775Z,584.00
2019-05-12T04:31:15.473Z,524.00
2019-05-12T04:32:14.592Z,532.00
2019-05-12T04:33:15.427Z,556.00
2019-05-12T04:34:18.658Z,560.00
2019-05-12T04:35:15.308Z,504.00
2019-05-12T04:36:15.016Z,560.00
2019-05-12T04:37:14.948Z,596.00
2019-05-12T04:38:15.186Z,664.00
2019-05-12T04:39:14.833Z,660.00
2019-05-12T04:40:15.072Z,668.00
2019-05-12T04:41:14.710Z,692.00
2019-05-12T04:42:15.037Z,644.00
2019-05-12T04:43:14.800Z,620.00
2019-05-12T04:44:15.431Z,612.00
2019-05-12T04:45:15.573Z,620.00
2019-05-12T04:46:14.657Z,640.00
2019-05-12T04:47:14.668Z,664.00
2019-05-12T04:48:15.646Z,704.00
2019-05-12T04:49:15.837Z,840.00
2019-05-12T04:50:15.650Z,896.00
2019-05-12T04:51:15.345Z,952.00
2019-05-12T04:52:15.603Z,896.00
2019-05-12T04:53:14.614Z,888.00
2019-05-12T04:54:15.203Z,964.00
2019-05-12T04:55:15.161Z,1044.00
2019-05-12T04:56:19.317Z,948.00
2019-05-12T04:57:15.163Z,912.00
2019-05-12T04:58:15.557Z,1032.00
2019-05-12T04:59:15.638Z,1276.00
2019-05-12T05:00:15.835Z,1332.00
2019-05-12T05:01:15.621Z,1504.00
2019-05-12T05:02:15.497Z,1364.00
2019-05-12T05:03:14.442Z,992.00
2019-05-12T05:04:15.473Z,976.00
2019-05-12T05:05:14.590Z,944.00
2019-05-12T05:06:14.799Z,1048.00
2019-05-12T05:07:15.038Z,1152.00
2019-05-12T05:08:16.851Z,1096.00
2019-05-12T05:09:14.864Z,1264.00
2019-05-12T05:10:14.734Z,1376.00
2019-05-12T05:11:14.729Z,1280.00
2019-05-12T05:12:14.081Z,1356.00
2019-05-12T05:13:14.978Z,1388.00
2019-05-12T05:14:14.431Z,1452.00
2019-05-12T05:15:14.773Z,1240.00
2019-05-12T05:16:14.512Z,1180.00
2019-05-12T05:17:15.040Z,1456.00
2019-05-12T05:18:13.740Z,1456.00
2019-05-12T05:19:13.962Z,1616.00
2019-05-12T05:20:13.755Z,1840.00
2019-05-12T05:21:14.051Z,2008.00
2019-05-12T05:22:13.798Z,2096.00
2019-05-12T05:23:14.324Z,1916.00
2019-05-12T05:24:14.338Z,2160.00
2019-05-12T05:25:14.406Z,1860.00
2019-05-12T05:26:22.189Z,1804.00
2019-05-12T05:27:14.664Z,1824.00
2019-05-12T05:28:14.655Z,1940.00
2019-05-12T05:29:13.754Z,2080.00
2019-05-12T05:30:13.998Z,2156.00
2019-05-12T05:31:14.111Z,2244.00
2019-05-12T05:32:14.106Z,2192.00
2019-05-12T05:33:14.463Z,2704.00
2019-05-12T05:34:14.918Z,2744.00
2019-05-12T05:35:13.828Z,3028.00
2019-05-12T05:36:15.208Z,3100.00
2019-05-12T05:37:14.694Z,2900.00
2019-05-12T05:38:19.144Z,3296.00
2019-05-12T05:39:14.517Z,3248.00
2019-05-12T05:40:14.290Z,3396.00
2019-05-12T05:41:13.598Z,3572.00
2019-05-12T05:42:13.592Z,3908.00
2019-05-12T05:43:18.316Z,3292.00
2019-05-12T05:44:14.450Z,3300.00
2019-05-12T05:45:19.638Z,3348.00
2019-05-12T05:46:14.442Z,3268.00
2019-05-12T05:47:13.917Z,3520.00
2019-05-12T05:48:13.727Z,3156.00
2019-05-12T05:49:13.463Z,3128.00
2019-05-12T05:50:13.702Z,3604.00
2019-05-12T05:51:13.714Z,3392.00
2019-05-12T05:52:13.801Z,3352.00
2019-05-12T05:53:17.550Z,3004.00
2019-05-12T05:54:14.334Z,3016.00
2019-05-12T05:55:18.858Z,3100.00
2019-05-12T05:56:16.540Z,3312.00
2019-05-12T05:57:14.337Z,3148.00
2019-05-12T05:58:15.407Z,3240.00
2019-05-12T05:59:15.052Z,3392.00
2019-05-12T06:00:21.712Z,3568.00
2019-05-12T06:01:14.256Z,3444.00
2019-05-12T06:02:13.878Z,3572.00
2019-05-12T06:03:22.767Z,3180.00
2019-05-12T06:04:14.229Z,2876.00
2019-05-12T06:05:14.420Z,2808.00
2019-05-12T06:06:15.416Z,3128.00
2019-05-12T06:07:14.359Z,3276.00
2019-05-12T06:08:16.551Z,2788.00
2019-05-12T06:09:14.253Z,2676.00
2019-05-12T06:10:14.494Z,3012.00
2019-05-12T06:11:14.861Z,2824.00
2019-05-12T06:12:14.133Z,3196.00
2019-05-12T06:13:14.370Z,2968.00
2019-05-12T06:14:15.990Z,2908.00
2019-05-12T06:15:13.668Z,2980.00
2019-05-12T06:16:20.128Z,2696.00
2019-05-12T06:17:14.684Z,2316.00
2019-05-12T06:18:13.669Z,1964.00
2019-05-12T06:19:14.106Z,1756.00
2019-05-12T06:20:13.570Z,2204.00
2019-05-12T06:21:13.770Z,2400.00
2019-05-12T06:22:15.318Z,2740.00
2019-05-12T06:23:14.823Z,2576.00
2019-05-12T06:24:15.691Z,2308.00
2019-05-12T06:25:16.239Z,2248.00
2019-05-12T06:26:14.011Z,2604.00
2019-05-12T06:27:16.133Z,3084.00
2019-05-12T06:28:14.582Z,2636.00
2019-05-12T06:29:20.116Z,2280.00
2019-05-12T06:30:14.739Z,2424.00
2019-05-12T06:31:13.863Z,2272.00
2019-05-12T06:32:14.182Z,2024.00
2019-05-12T06:33:14.400Z,2124.00
2019-05-12T06:34:18.709Z,2200.00
2019-05-12T06:35:15.088Z,2152.00
2019-05-12T06:36:21.778Z,2480.00
2019-05-12T06:37:16.942Z,2724.00
2019-05-12T06:38:13.597Z,2816.00
2019-05-12T06:39:16.471Z,2816.00
2019-05-12T06:40:14.217Z,2468.00
2019-05-12T06:41:20.476Z,2584.00
2019-05-12T06:42:16.824Z,2400.00
2019-05-12T06:43:13.932Z,2736.00
2019-05-12T06:44:14.874Z,3528.00
2019-05-12T06:45:14.254Z,4200.00
2019-05-12T06:46:20.286Z,3376.00
2019-05-12T06:47:14.334Z,3284.00
2019-05-12T06:48:14.052Z,3384.00
2019-05-12T06:49:17.354Z,3068.00
2019-05-12T06:50:14.532Z,3444.00
2019-05-12T06:51:16.902Z,3884.00
2019-05-12T06:52:14.350Z,4040.00
2019-05-12T06:53:13.919Z,3884.00
2019-05-12T06:54:15.081Z,3700.00
2019-05-12T06:55:14.685Z,3788.00
2019-05-12T06:56:17.595Z,3568.00
2019-05-12T06:57:24.195Z,4084.00
2019-05-12T06:58:14.118Z,2808.00
2019-05-12T06:59:14.750Z,2448.00
2019-05-12T07:00:14.578Z,2204.00
2019-05-12T07:01:19.088Z,2524.00
2019-05-12T07:02:13.894Z,3032.00
2019-05-12T07:03:14.325Z,2900.00
2019-05-12T07:04:14.125Z,3120.00
2019-05-12T07:05:14.614Z,4684.00
2019-05-12T07:06:17.992Z,4716.00
2019-05-12T07:07:14.157Z,2724.00
2019-05-12T07:08:20.019Z,3316.00
2019-05-12T07:09:16.431Z,3784.00
2019-05-12T07:10:35.099Z,3672.00
2019-05-12T07:11:14.301Z,3880.00
2019-05-12T07:12:13.754Z,3648.00
2019-05-12T07:13:14.768Z,4460.00
2019-05-12T07:15:14.369Z,3316.00
2019-05-12T07:16:16.605Z,3584.00
2019-05-12T07:17:14.514Z,6204.00
2019-05-12T07:18:14.062Z,3736.00
2019-05-12T07:19:17.313Z,3492.00
2019-05-12T07:20:14.757Z,3452.00
2019-05-12T07:21:15.517Z,4988.00
2019-05-12T07:22:22.037Z,4072.00
2019-05-12T07:23:14.250Z,4692.00
2019-05-12T07:24:14.234Z,4292.00
2019-05-12T07:25:13.453Z,4540.00
2019-05-12T07:26:17.874Z,4576.00
2019-05-12T07:27:14.112Z,6324.00
2019-05-12T07:28:14.344Z,4396.00
2019-05-12T07:29:13.383Z,3888.00
2019-05-12T07:30:13.682Z,5260.00
2019-05-12T07:31:14.241Z,4080.00
2019-05-12T07:32:16.610Z,3860.00
2019-05-12T07:33:14.615Z,3788.00
2019-05-12T07:34:13.621Z,3688.00
2019-05-12T07:35:14.631Z,3940.00
2019-05-12T07:36:13.754Z,3820.00
2019-05-12T07:37:12.196Z,3724.00
2019-05-12T07:38:20.546Z,3792.00
2019-05-12T07:39:13.613Z,3136.00
2019-05-12T07:40:13.765Z,3300.00
2019-05-12T07:41:14.240Z,3164.00
2019-05-12T07:42:13.367Z,3192.00
2019-05-12T07:43:18.626Z,6044.00
2019-05-12T07:44:14.230Z,6628.00
2019-05-12T07:45:20.674Z,7280.00
2019-05-12T07:46:13.478Z,7716.00
2019-05-12T07:47:13.770Z,7696.00
2019-05-12T07:48:13.858Z,7252.00
2019-05-12T07:49:14.043Z,7524.00
2019-05-12T07:50:16.154Z,7604.00
2019-05-12T07:51:13.766Z,7640.00
2019-05-12T07:52:13.759Z,4584.00
2019-05-12T07:53:14.296Z,7044.00
2019-05-12T07:54:14.135Z,4332.00
2019-05-12T07:55:14.589Z,3464.00
2019-05-12T07:56:14.291Z,3536.00
2019-05-12T07:57:17.157Z,3796.00
2019-05-12T07:58:18.287Z,4152.00
2019-05-12T07:59:13.544Z,4504.00
2019-05-12T08:00:21.016Z,4640.00
2019-05-12T08:01:14.595Z,4732.00
2019-05-12T08:02:14.145Z,4940.00
2019-05-12T08:03:20.697Z,5256.00
2019-05-12T08:04:13.448Z,7468.00
2019-05-12T08:05:19.437Z,6968.00
2019-05-12T08:06:14.237Z,3604.00
2019-05-12T08:07:14.291Z,3624.00
2019-05-12T08:08:11.829Z,4060.00
2019-05-12T08:09:13.594Z,4460.00
2019-05-12T08:10:15.864Z,4584.00
2019-05-12T08:11:14.904Z,4752.00
2019-05-12T08:12:16.374Z,4628.00
2019-05-12T08:13:14.819Z,5260.00
2019-05-12T08:14:13.692Z,6316.00
2019-05-12T08:15:14.002Z,4720.00
2019-05-12T08:16:14.011Z,5160.00
2019-05-12T08:17:16.881Z,5416.00
2019-05-12T08:18:14.036Z,4272.00
2019-05-12T08:19:17.230Z,4580.00
2019-05-12T08:20:13.497Z,4144.00
2019-05-12T08:21:13.819Z,4124.00
2019-05-12T08:22:13.562Z,3776.00
2019-05-12T08:23:13.921Z,3320.00
2019-05-12T08:24:11.647Z,2840.00
2019-05-12T08:25:13.517Z,4800.00
2019-05-12T08:26:17.906Z,3184.00
2019-05-12T08:27:14.242Z,2700.00
2019-05-12T08:28:18.053Z,5572.00
2019-05-12T08:29:16.913Z,5964.00
2019-05-12T08:30:13.820Z,6328.00
2019-05-12T08:31:13.957Z,6960.00
2019-05-12T08:32:15.946Z,7368.00
2019-05-12T08:33:14.687Z,7596.00
2019-05-12T08:34:13.533Z,7500.00
2019-05-12T08:35:13.739Z,4420.00
2019-05-12T08:36:15.509Z,3696.00
2019-05-12T08:37:13.778Z,3040.00
2019-05-12T08:38:11.514Z,2720.00
2019-05-12T08:39:18.123Z,2980.00
2019-05-12T08:40:12.464Z,3272.00
2019-05-12T08:41:11.483Z,3052.00
2019-05-12T08:42:11.585Z,3412.00
2019-05-12T08:43:11.434Z,3708.00
2019-05-12T08:44:13.404Z,3048.00
2019-05-12T08:45:17.015Z,2936.00
2019-05-12T08:46:15.289Z,6160.00
2019-05-12T08:47:12.186Z,3780.00
2019-05-12T08:48:17.149Z,3160.00
2019-05-12T08:49:14.390Z,6556.00
2019-05-12T08:50:13.588Z,6584.00
2019-05-12T08:51:14.438Z,6160.00
2019-05-12T08:52:14.206Z,6116.00
2019-05-12T08:53:19.986Z,5936.00
2019-05-12T08:54:14.231Z,5764.00
2019-05-12T08:55:13.877Z,5676.00
2019-05-12T08:56:18.669Z,5248.00
2019-05-12T08:57:14.371Z,5396.00
2019-05-12T08:58:28.177Z,5388.00
2019-05-12T08:59:17.539Z,5456.00
2019-05-12T09:00:13.499Z,5708.00
2019-05-12T09:01:13.662Z,5892.00
2019-05-12T09:02:13.751Z,6516.00
2019-05-12T09:03:11.217Z,6896.00
2019-05-12T09:04:15.807Z,6092.00
2019-05-12T09:05:14.281Z,5664.00
2019-05-12T09:06:15.484Z,5716.00
2019-05-12T09:07:13.878Z,2456.00
2019-05-12T09:08:11.151Z,2876.00
2019-05-12T09:09:11.146Z,6516.00
2019-05-12T09:10:11.127Z,6628.00
2019-05-12T09:11:11.139Z,7036.00
2019-05-12T09:12:11.104Z,7020.00
2019-05-12T09:13:11.095Z,7316.00
2019-05-12T09:14:11.082Z,4120.00
2019-05-12T09:15:13.423Z,4660.00
2019-05-12T09:16:11.061Z,6284.00
2019-05-12T09:17:11.050Z,3272.00
2019-05-12T09:18:11.044Z,3036.00
2019-05-12T09:19:18.215Z,4936.00
2019-05-12T09:20:13.743Z,6644.00
2019-05-12T09:21:11.004Z,6908.00
2019-05-12T09:22:18.493Z,7160.00
2019-05-12T09:23:13.599Z,7104.00
2019-05-12T09:24:15.632Z,6852.00
2019-05-12T09:25:14.106Z,4320.00
2019-05-12T09:26:13.020Z,2868.00
2019-05-12T09:27:10.959Z,6224.00
2019-05-12T09:28:10.924Z,2904.00
2019-05-12T09:29:10.916Z,6416.00
2019-05-12T09:30:10.902Z,3532.00
2019-05-12T09:31:10.891Z,3408.00
2019-05-12T09:32:10.911Z,6396.00
2019-05-12T09:33:10.868Z,5948.00
2019-05-12T09:34:11.952Z,3304.00
2019-05-12T09:35:10.853Z,5716.00
2019-05-12T09:36:11.425Z,5408.00
2019-05-12T09:37:14.123Z,5476.00
2019-05-12T09:38:11.301Z,5500.00
2019-05-12T09:39:14.059Z,5516.00
2019-05-12T09:40:10.789Z,5712.00
2019-05-12T09:41:10.778Z,5744.00
2019-05-12T09:42:10.792Z,5844.00
2019-05-12T09:43:11.457Z,6056.00
2019-05-12T09:44:10.755Z,6396.00
2019-05-12T09:45:10.774Z,6884.00
2019-05-12T09:46:10.723Z,7428.00
2019-05-12T09:47:19.437Z,7556.00
2019-05-12T09:48:13.861Z,7704.00
2019-05-12T09:49:10.687Z,7732.00
2019-05-12T09:50:18.429Z,7804.00
2019-05-12T09:51:13.387Z,3824.00
2019-05-12T09:52:21.642Z,3448.00
2019-05-12T09:53:11.709Z,4112.00
2019-05-12T09:54:10.632Z,2684.00
2019-05-12T09:55:10.620Z,2876.00
2019-05-12T09:56:10.608Z,5904.00
2019-05-12T09:57:10.614Z,6000.00
2019-05-12T09:58:15.836Z,6108.00
2019-05-12T09:59:19.106Z,6100.00
2019-05-12T10:00:13.605Z,5992.00
2019-05-12T10:01:10.555Z,5768.00
2019-05-12T10:02:15.783Z,5752.00
2019-05-12T10:03:13.696Z,5924.00
2019-05-12T10:04:15.387Z,6128.00
2019-05-12T10:05:14.213Z,6228.00
2019-05-12T10:06:11.501Z,6092.00
2019-05-12T10:07:11.484Z,6000.00
2019-05-12T10:08:10.472Z,5620.00
2019-05-12T10:09:17.606Z,5400.00
2019-05-12T10:10:14.013Z,5500.00
2019-05-12T10:11:15.749Z,5660.00
2019-05-12T10:12:13.578Z,5852.00
2019-05-12T10:13:10.416Z,6020.00
2019-05-12T10:14:11.036Z,6160.00
2019-05-12T10:15:10.396Z,6328.00
2019-05-12T10:16:10.390Z,6432.00
2019-05-12T10:17:10.370Z,6280.00
2019-05-12T10:18:11.373Z,6044.00
2019-05-12T10:19:10.374Z,6004.00
2019-05-12T10:20:10.340Z,6084.00
2019-05-12T10:21:15.234Z,6112.00
2019-05-12T10:22:11.312Z,6152.00
2019-05-12T10:23:15.644Z,6152.00
2019-05-12T10:24:11.320Z,6268.00
2019-05-12T10:25:10.286Z,6496.00
2019-05-12T10:26:11.825Z,7016.00
2019-05-12T10:27:10.258Z,5644.00
2019-05-12T10:28:13.026Z,6632.00
2019-05-12T10:29:19.651Z,6192.00
2019-05-12T10:30:12.665Z,5604.00
2019-05-12T10:31:13.673Z,5384.00
2019-05-12T10:32:10.540Z,5304.00
2019-05-12T10:33:10.192Z,5292.00
2019-05-12T10:34:10.257Z,5324.00
2019-05-12T10:35:12.530Z,5332.00
2019-05-12T10:36:11.180Z,5240.00
2019-05-12T10:37:10.145Z,5224.00
2019-05-12T10:38:10.932Z,5272.00
2019-05-12T10:39:10.122Z,5348.00
2019-05-12T10:40:10.111Z,5472.00
2019-05-12T10:41:10.125Z,5704.00
2019-05-12T10:42:10.088Z,5936.00
2019-05-12T10:43:10.076Z,6120.00
2019-05-12T10:44:10.066Z,6488.00
2019-05-12T10:45:10.834Z,7080.00
2019-05-12T10:46:13.117Z,5240.00
2019-05-12T10:47:10.034Z,6544.00
2019-05-12T10:48:10.021Z,3240.00
2019-05-12T10:49:10.011Z,5564.00
2019-05-12T10:50:10.025Z,5328.00
2019-05-12T10:51:09.987Z,5264.00
2019-05-12T10:52:09.976Z,5252.00
2019-05-12T10:53:15.448Z,5192.00
2019-05-12T10:54:13.107Z,5052.00
2019-05-12T10:55:09.945Z,5232.00
2019-05-12T10:56:09.931Z,5304.00
2019-05-12T10:57:09.919Z,5368.00
2019-05-12T10:58:09.908Z,5480.00
2019-05-12T10:59:09.898Z,5520.00
2019-05-12T11:00:09.916Z,5732.00
2019-05-12T11:01:09.876Z,5932.00
2019-05-12T11:02:09.881Z,6004.00
2019-05-12T11:03:12.345Z,5920.00
2019-05-12T11:04:09.841Z,5976.00
2019-05-12T11:05:12.444Z,6020.00
2019-05-12T11:06:10.841Z,5988.00
2019-05-12T11:07:09.807Z,5964.00
2019-05-12T11:08:11.348Z,5760.00
2019-05-12T11:09:09.789Z,5732.00
2019-05-12T11:10:15.142Z,5540.00
2019-05-12T11:11:10.763Z,5508.00
2019-05-12T11:12:09.770Z,3656.00
2019-05-12T11:13:10.051Z,2448.00
2019-05-12T11:14:09.761Z,5412.00
2019-05-12T11:15:09.720Z,5288.00
2019-05-12T11:16:09.707Z,5308.00
2019-05-12T11:17:09.714Z,5392.00
2019-05-12T11:18:09.682Z,5436.00
2019-05-12T11:19:10.686Z,5672.00
2019-05-12T11:20:09.660Z,5708.00
2019-05-12T11:21:09.650Z,5552.00
2019-05-12T11:22:09.639Z,5432.00
2019-05-12T11:23:09.626Z,5584.00
2019-05-12T11:24:09.642Z,5824.00
2019-05-12T11:25:09.646Z,6168.00
2019-05-12T11:26:09.593Z,6648.00
2019-05-12T11:27:09.604Z,7164.00
2019-05-12T11:28:09.572Z,7388.00
2019-05-12T11:29:09.583Z,7204.00
2019-05-12T11:30:09.577Z,6916.00
2019-05-12T11:31:09.536Z,6908.00
2019-05-12T11:32:09.526Z,6624.00
2019-05-12T11:33:09.513Z,6268.00
2019-05-12T11:34:09.504Z,5844.00
2019-05-12T11:35:09.514Z,5608.00
2019-05-12T11:36:09.510Z,5856.00
2019-05-12T11:37:09.470Z,5872.00
2019-05-12T11:38:09.459Z,6152.00
2019-05-12T11:39:09.447Z,6236.00
2019-05-12T11:40:09.436Z,5888.00
2019-05-12T11:41:10.126Z,5620.00
2019-05-12T11:42:10.411Z,5608.00
2019-05-12T11:43:09.403Z,6096.00
2019-05-12T11:44:09.395Z,5764.00
2019-05-12T11:45:09.379Z,5380.00
2019-05-12T11:46:09.382Z,5264.00
2019-05-12T11:47:14.721Z,5384.00
2019-05-12T11:48:10.530Z,5544.00
2019-05-12T11:49:09.711Z,5500.00
2019-05-12T11:50:09.994Z,5640.00
2019-05-12T11:51:09.403Z,5772.00
2019-05-12T11:52:15.444Z,5708.00
2019-05-12T11:53:10.288Z,5640.00
2019-05-12T11:54:10.804Z,5964.00
2019-05-12T11:55:09.270Z,6168.00
2019-05-12T11:56:09.440Z,6416.00
2019-05-12T11:57:09.248Z,6752.00
2019-05-12T11:58:11.444Z,7072.00
2019-05-12T11:59:09.222Z,7276.00
2019-05-12T12:00:09.218Z,7352.00
2019-05-12T12:01:09.205Z,7272.00
2019-05-12T12:02:09.188Z,7240.00
2019-05-12T12:03:13.350Z,6852.00
2019-05-12T12:04:10.194Z,6592.00
2019-05-12T12:05:09.179Z,6496.00
2019-05-12T12:06:09.142Z,5984.00
2019-05-12T12:07:09.132Z,6056.00
2019-05-12T12:08:09.134Z,6076.00
2019-05-12T12:09:14.549Z,6072.00
2019-05-12T12:10:10.125Z,5732.00
2019-05-12T12:11:10.492Z,5400.00
2019-05-12T12:12:10.076Z,5240.00
2019-05-12T12:13:09.065Z,5088.00
2019-05-12T12:14:10.655Z,4984.00
2019-05-12T12:15:09.069Z,3864.00
2019-05-12T12:16:11.148Z,5160.00
2019-05-12T12:17:09.021Z,5352.00
2019-05-12T12:18:13.760Z,5604.00
2019-05-12T12:19:09.995Z,5888.00
2019-05-12T12:20:13.976Z,6260.00
2019-05-12T12:21:09.975Z,6684.00
2019-05-12T12:22:08.964Z,6936.00
2019-05-12T12:23:11.053Z,7096.00
2019-05-12T12:24:08.944Z,7300.00
2019-05-12T12:25:10.910Z,7188.00
2019-05-12T12:26:08.942Z,7144.00
2019-05-12T12:27:08.909Z,7060.00
2019-05-12T12:28:08.897Z,7012.00